Dundee, Oregon
Current Conditions -  °F | °C
As of 6:53 PM on Tuesday 21 Oct 2014 (Local Time) from KMMV Reporting Station
Overcast Overcast  
Wind Chill: 58°   Ceiling: 6000
Heat Index: 58°   Visibility: 10mi
Dew Point: 51°   Wind: 6mph
Humidity: 78%   Direction: 180°S
Pressure: 29.92"   Gusts: NA
Location:  45.28°N, 123.01°W
Report Text: KMMV 220153Z AUTO 18005KT 10SM OVC060 14/11 A2992 RMK AO2 SLP130 T01440106 $
Loading
Personal Weather Stations






























Interactive Weather Map
Tropical Storm Tracking
New forecast layout! Learn more

10-Day Weather Forecast

Advertisements
Track Severe Weather on mobile